<?xml version="1.0" encoding="UTF-8" standalone="no" ?>
<gpx xmlns="http://www.topografix.com/GPX/1/1" xmlns:xsi="http://www.w3.org/2001/XMLSchema-instance" xsi:schemaLocation="http://www.topografix.com/GPX/1/1 http://www.topografix.com/GPX/1/1/gpx.xsd" version="1.1" creator="VisuGPX - https://www.visugpx.com">
  <metadata>
    <name>entrainement avec Françoise N°6</name>
    <desc><![CDATA[Par la chapelle de uberstrass et retour par le haut de Seppois]]></desc>
  </metadata>
  <wpt lat="47.54123" lon="7.17071">
    <ele>367</ele>
    <name><![CDATA[0000044]]></name>
  </wpt>
  <wpt lat="47.54165" lon="7.17088">
    <ele>367</ele>
    <name><![CDATA[0000045]]></name>
  </wpt>
  <trk>
    <name><![CDATA[2018-04-11 12:05]]></name>
    <trkseg>
      <trkpt lat="47.54123" lon="7.17071">
        <ele>367</ele>
        <time>2018-04-11T10:05:21Z</time>
      </trkpt>
      <trkpt lat="47.54107" lon="7.1709">
        <ele>367</ele>
        <time>2018-04-11T10:05:35Z</time>
      </trkpt>
      <trkpt lat="47.54091" lon="7.17108">
        <ele>367</ele>
        <time>2018-04-11T10:05:49Z</time>
      </trkpt>
      <trkpt lat="47.54073" lon="7.17119">
        <ele>369</ele>
        <time>2018-04-11T10:06:05Z</time>
      </trkpt>
      <trkpt lat="47.54053" lon="7.17117">
        <ele>370</ele>
        <time>2018-04-11T10:06:19Z</time>
      </trkpt>
      <trkpt lat="47.54039" lon="7.17098">
        <ele>370</ele>
        <time>2018-04-11T10:06:29Z</time>
      </trkpt>
      <trkpt lat="47.54021" lon="7.17081">
        <ele>371</ele>
        <time>2018-04-11T10:06:41Z</time>
      </trkpt>
      <trkpt lat="47.54008" lon="7.17061">
        <ele>371</ele>
        <time>2018-04-11T10:06:53Z</time>
      </trkpt>
      <trkpt lat="47.53994" lon="7.17038">
        <ele>376</ele>
        <time>2018-04-11T10:07:05Z</time>
      </trkpt>
      <trkpt lat="47.53981" lon="7.17016">
        <ele>376</ele>
        <time>2018-04-11T10:07:17Z</time>
      </trkpt>
      <trkpt lat="47.53973" lon="7.16988">
        <ele>378</ele>
        <time>2018-04-11T10:07:29Z</time>
      </trkpt>
      <trkpt lat="47.53968" lon="7.16961">
        <ele>379</ele>
        <time>2018-04-11T10:07:41Z</time>
      </trkpt>
      <trkpt lat="47.53956" lon="7.16938">
        <ele>380</ele>
        <time>2018-04-11T10:07:53Z</time>
      </trkpt>
      <trkpt lat="47.53942" lon="7.16921">
        <ele>381</ele>
        <time>2018-04-11T10:08:05Z</time>
      </trkpt>
      <trkpt lat="47.53945" lon="7.16894">
        <ele>383</ele>
        <time>2018-04-11T10:08:19Z</time>
      </trkpt>
      <trkpt lat="47.53957" lon="7.16868">
        <ele>383</ele>
        <time>2018-04-11T10:08:31Z</time>
      </trkpt>
      <trkpt lat="47.53965" lon="7.16839">
        <ele>384</ele>
        <time>2018-04-11T10:08:45Z</time>
      </trkpt>
      <trkpt lat="47.53969" lon="7.16813">
        <ele>386</ele>
        <time>2018-04-11T10:08:57Z</time>
      </trkpt>
      <trkpt lat="47.53967" lon="7.16784">
        <ele>387</ele>
        <time>2018-04-11T10:09:11Z</time>
      </trkpt>
      <trkpt lat="47.53953" lon="7.16765">
        <ele>388</ele>
        <time>2018-04-11T10:09:23Z</time>
      </trkpt>
      <trkpt lat="47.53938" lon="7.16743">
        <ele>392</ele>
        <time>2018-04-11T10:09:37Z</time>
      </trkpt>
      <trkpt lat="47.53924" lon="7.16722">
        <ele>392</ele>
        <time>2018-04-11T10:09:51Z</time>
      </trkpt>
      <trkpt lat="47.53913" lon="7.16697">
        <ele>398</ele>
        <time>2018-04-11T10:10:05Z</time>
      </trkpt>
      <trkpt lat="47.53903" lon="7.16674">
        <ele>398</ele>
        <time>2018-04-11T10:10:17Z</time>
      </trkpt>
      <trkpt lat="47.53891" lon="7.16651">
        <ele>401</ele>
        <time>2018-04-11T10:10:29Z</time>
      </trkpt>
      <trkpt lat="47.53875" lon="7.1663">
        <ele>402</ele>
        <time>2018-04-11T10:10:41Z</time>
      </trkpt>
      <trkpt lat="47.53861" lon="7.16613">
        <ele>403</ele>
        <time>2018-04-11T10:10:53Z</time>
      </trkpt>
      <trkpt lat="47.53847" lon="7.16591">
        <ele>405</ele>
        <time>2018-04-11T10:11:05Z</time>
      </trkpt>
      <trkpt lat="47.53832" lon="7.16571">
        <ele>408</ele>
        <time>2018-04-11T10:11:17Z</time>
      </trkpt>
      <trkpt lat="47.53818" lon="7.16553">
        <ele>408</ele>
        <time>2018-04-11T10:11:27Z</time>
      </trkpt>
      <trkpt lat="47.53804" lon="7.16533">
        <ele>409</ele>
        <time>2018-04-11T10:11:39Z</time>
      </trkpt>
      <trkpt lat="47.53792" lon="7.16513">
        <ele>409</ele>
        <time>2018-04-11T10:11:51Z</time>
      </trkpt>
      <trkpt lat="47.53776" lon="7.16494">
        <ele>410</ele>
        <time>2018-04-11T10:12:03Z</time>
      </trkpt>
      <trkpt lat="47.53761" lon="7.16473">
        <ele>411</ele>
        <time>2018-04-11T10:12:15Z</time>
      </trkpt>
      <trkpt lat="47.53746" lon="7.16451">
        <ele>415</ele>
        <time>2018-04-11T10:12:27Z</time>
      </trkpt>
      <trkpt lat="47.5374" lon="7.16424">
        <ele>414</ele>
        <time>2018-04-11T10:12:41Z</time>
      </trkpt>
      <trkpt lat="47.53751" lon="7.16397">
        <ele>413</ele>
        <time>2018-04-11T10:12:53Z</time>
      </trkpt>
      <trkpt lat="47.53763" lon="7.16373">
        <ele>413</ele>
        <time>2018-04-11T10:13:05Z</time>
      </trkpt>
      <trkpt lat="47.53771" lon="7.16347">
        <ele>413</ele>
        <time>2018-04-11T10:13:15Z</time>
      </trkpt>
      <trkpt lat="47.53777" lon="7.16322">
        <ele>415</ele>
        <time>2018-04-11T10:13:27Z</time>
      </trkpt>
      <trkpt lat="47.53779" lon="7.16293">
        <ele>415</ele>
        <time>2018-04-11T10:13:39Z</time>
      </trkpt>
      <trkpt lat="47.53782" lon="7.16265">
        <ele>416</ele>
        <time>2018-04-11T10:13:49Z</time>
      </trkpt>
      <trkpt lat="47.53784" lon="7.16238">
        <ele>417</ele>
        <time>2018-04-11T10:13:59Z</time>
      </trkpt>
      <trkpt lat="47.53787" lon="7.16211">
        <ele>417</ele>
        <time>2018-04-11T10:14:09Z</time>
      </trkpt>
      <trkpt lat="47.53789" lon="7.16184">
        <ele>417</ele>
        <time>2018-04-11T10:14:19Z</time>
      </trkpt>
      <trkpt lat="47.53789" lon="7.16155">
        <ele>417</ele>
        <time>2018-04-11T10:14:29Z</time>
      </trkpt>
      <trkpt lat="47.5379" lon="7.16125">
        <ele>417</ele>
        <time>2018-04-11T10:14:41Z</time>
      </trkpt>
      <trkpt lat="47.53797" lon="7.161">
        <ele>417</ele>
        <time>2018-04-11T10:14:51Z</time>
      </trkpt>
      <trkpt lat="47.53814" lon="7.16084">
        <ele>416</ele>
        <time>2018-04-11T10:15:01Z</time>
      </trkpt>
      <trkpt lat="47.53831" lon="7.16073">
        <ele>416</ele>
        <time>2018-04-11T10:15:11Z</time>
      </trkpt>
      <trkpt lat="47.5385" lon="7.16061">
        <ele>416</ele>
        <time>2018-04-11T10:15:23Z</time>
      </trkpt>
      <trkpt lat="47.53867" lon="7.16051">
        <ele>416</ele>
        <time>2018-04-11T10:15:35Z</time>
      </trkpt>
      <trkpt lat="47.53885" lon="7.16035">
        <ele>416</ele>
        <time>2018-04-11T10:15:47Z</time>
      </trkpt>
      <trkpt lat="47.53903" lon="7.16023">
        <ele>417</ele>
        <time>2018-04-11T10:15:59Z</time>
      </trkpt>
      <trkpt lat="47.53921" lon="7.16014">
        <ele>417</ele>
        <time>2018-04-11T10:16:11Z</time>
      </trkpt>
      <trkpt lat="47.53939" lon="7.16003">
        <ele>417</ele>
        <time>2018-04-11T10:16:23Z</time>
      </trkpt>
      <trkpt lat="47.53955" lon="7.15987">
        <ele>417</ele>
        <time>2018-04-11T10:16:35Z</time>
      </trkpt>
      <trkpt lat="47.53968" lon="7.15964">
        <ele>417</ele>
        <time>2018-04-11T10:16:47Z</time>
      </trkpt>
      <trkpt lat="47.53982" lon="7.15942">
        <ele>417</ele>
        <time>2018-04-11T10:16:59Z</time>
      </trkpt>
      <trkpt lat="47.53995" lon="7.15923">
        <ele>416</ele>
        <time>2018-04-11T10:17:09Z</time>
      </trkpt>
      <trkpt lat="47.5401" lon="7.15901">
        <ele>415</ele>
        <time>2018-04-11T10:17:21Z</time>
      </trkpt>
      <trkpt lat="47.54024" lon="7.15877">
        <ele>414</ele>
        <time>2018-04-11T10:17:33Z</time>
      </trkpt>
      <trkpt lat="47.54038" lon="7.15853">
        <ele>413</ele>
        <time>2018-04-11T10:17:45Z</time>
      </trkpt>
      <trkpt lat="47.5405" lon="7.15831">
        <ele>413</ele>
        <time>2018-04-11T10:17:57Z</time>
      </trkpt>
      <trkpt lat="47.54062" lon="7.1581">
        <ele>413</ele>
        <time>2018-04-11T10:18:07Z</time>
      </trkpt>
      <trkpt lat="47.54076" lon="7.15787">
        <ele>413</ele>
        <time>2018-04-11T10:18:19Z</time>
      </trkpt>
      <trkpt lat="47.54089" lon="7.15764">
        <ele>411</ele>
        <time>2018-04-11T10:18:31Z</time>
      </trkpt>
      <trkpt lat="47.54101" lon="7.15743">
        <ele>411</ele>
        <time>2018-04-11T10:18:41Z</time>
      </trkpt>
      <trkpt lat="47.54114" lon="7.15719">
        <ele>410</ele>
        <time>2018-04-11T10:18:53Z</time>
      </trkpt>
      <trkpt lat="47.54127" lon="7.15695">
        <ele>409</ele>
        <time>2018-04-11T10:19:05Z</time>
      </trkpt>
      <trkpt lat="47.54141" lon="7.15672">
        <ele>409</ele>
        <time>2018-04-11T10:19:17Z</time>
      </trkpt>
      <trkpt lat="47.54132" lon="7.15646">
        <ele>410</ele>
        <time>2018-04-11T10:19:31Z</time>
      </trkpt>
      <trkpt lat="47.54114" lon="7.15627">
        <ele>410</ele>
        <time>2018-04-11T10:19:43Z</time>
      </trkpt>
      <trkpt lat="47.541" lon="7.1561">
        <ele>410</ele>
        <time>2018-04-11T10:19:53Z</time>
      </trkpt>
      <trkpt lat="47.54086" lon="7.15592">
        <ele>411</ele>
        <time>2018-04-11T10:20:03Z</time>
      </trkpt>
      <trkpt lat="47.54069" lon="7.15573">
        <ele>411</ele>
        <time>2018-04-11T10:20:15Z</time>
      </trkpt>
      <trkpt lat="47.54053" lon="7.15553">
        <ele>412</ele>
        <time>2018-04-11T10:20:27Z</time>
      </trkpt>
      <trkpt lat="47.54036" lon="7.15535">
        <ele>412</ele>
        <time>2018-04-11T10:20:39Z</time>
      </trkpt>
      <trkpt lat="47.54019" lon="7.15515">
        <ele>412</ele>
        <time>2018-04-11T10:20:51Z</time>
      </trkpt>
      <trkpt lat="47.54003" lon="7.15496">
        <ele>413</ele>
        <time>2018-04-11T10:21:03Z</time>
      </trkpt>
      <trkpt lat="47.53986" lon="7.15476">
        <ele>414</ele>
        <time>2018-04-11T10:21:15Z</time>
      </trkpt>
      <trkpt lat="47.5397" lon="7.15456">
        <ele>414</ele>
        <time>2018-04-11T10:21:27Z</time>
      </trkpt>
      <trkpt lat="47.53969" lon="7.15425">
        <ele>414</ele>
        <time>2018-04-11T10:21:41Z</time>
      </trkpt>
      <trkpt lat="47.5398" lon="7.15402">
        <ele>414</ele>
        <time>2018-04-11T10:21:51Z</time>
      </trkpt>
      <trkpt lat="47.5399" lon="7.1538">
        <ele>414</ele>
        <time>2018-04-11T10:22:01Z</time>
      </trkpt>
      <trkpt lat="47.54" lon="7.15353">
        <ele>413</ele>
        <time>2018-04-11T10:22:13Z</time>
      </trkpt>
      <trkpt lat="47.54008" lon="7.15324">
        <ele>411</ele>
        <time>2018-04-11T10:22:25Z</time>
      </trkpt>
      <trkpt lat="47.54014" lon="7.15294">
        <ele>410</ele>
        <time>2018-04-11T10:22:37Z</time>
      </trkpt>
      <trkpt lat="47.54018" lon="7.15268">
        <ele>410</ele>
        <time>2018-04-11T10:22:47Z</time>
      </trkpt>
      <trkpt lat="47.5402" lon="7.15241">
        <ele>408</ele>
        <time>2018-04-11T10:22:57Z</time>
      </trkpt>
      <trkpt lat="47.54024" lon="7.15209">
        <ele>407</ele>
        <time>2018-04-11T10:23:09Z</time>
      </trkpt>
      <trkpt lat="47.54026" lon="7.15182">
        <ele>407</ele>
        <time>2018-04-11T10:23:19Z</time>
      </trkpt>
      <trkpt lat="47.54028" lon="7.15152">
        <ele>405</ele>
        <time>2018-04-11T10:23:31Z</time>
      </trkpt>
      <trkpt lat="47.54024" lon="7.15123">
        <ele>405</ele>
        <time>2018-04-11T10:23:43Z</time>
      </trkpt>
      <trkpt lat="47.54028" lon="7.15093">
        <ele>404</ele>
        <time>2018-04-11T10:23:55Z</time>
      </trkpt>
      <trkpt lat="47.54038" lon="7.15069">
        <ele>405</ele>
        <time>2018-04-11T10:24:05Z</time>
      </trkpt>
      <trkpt lat="47.54048" lon="7.15046">
        <ele>405</ele>
        <time>2018-04-11T10:24:15Z</time>
      </trkpt>
      <trkpt lat="47.54063" lon="7.15029">
        <ele>405</ele>
        <time>2018-04-11T10:24:25Z</time>
      </trkpt>
      <trkpt lat="47.5408" lon="7.15019">
        <ele>405</ele>
        <time>2018-04-11T10:24:37Z</time>
      </trkpt>
      <trkpt lat="47.54097" lon="7.15009">
        <ele>406</ele>
        <time>2018-04-11T10:24:47Z</time>
      </trkpt>
      <trkpt lat="47.54115" lon="7.14995">
        <ele>408</ele>
        <time>2018-04-11T10:24:59Z</time>
      </trkpt>
      <trkpt lat="47.54133" lon="7.14979">
        <ele>408</ele>
        <time>2018-04-11T10:25:11Z</time>
      </trkpt>
      <trkpt lat="47.54117" lon="7.14962">
        <ele>408</ele>
        <time>2018-04-11T10:25:29Z</time>
      </trkpt>
      <trkpt lat="47.54094" lon="7.14952">
        <ele>409</ele>
        <time>2018-04-11T10:25:42Z</time>
      </trkpt>
      <trkpt lat="47.54077" lon="7.14944">
        <ele>409</ele>
        <time>2018-04-11T10:25:52Z</time>
      </trkpt>
      <trkpt lat="47.54058" lon="7.14939">
        <ele>409</ele>
        <time>2018-04-11T10:26:04Z</time>
      </trkpt>
      <trkpt lat="47.54038" lon="7.14937">
        <ele>409</ele>
        <time>2018-04-11T10:26:16Z</time>
      </trkpt>
      <trkpt lat="47.5402" lon="7.14933">
        <ele>409</ele>
        <time>2018-04-11T10:26:26Z</time>
      </trkpt>
      <trkpt lat="47.54001" lon="7.14927">
        <ele>409</ele>
        <time>2018-04-11T10:26:36Z</time>
      </trkpt>
      <trkpt lat="47.53982" lon="7.1492">
        <ele>410</ele>
        <time>2018-04-11T10:26:46Z</time>
      </trkpt>
      <trkpt lat="47.53961" lon="7.14916">
        <ele>411</ele>
        <time>2018-04-11T10:26:58Z</time>
      </trkpt>
      <trkpt lat="47.5394" lon="7.1491">
        <ele>411</ele>
        <time>2018-04-11T10:27:10Z</time>
      </trkpt>
      <trkpt lat="47.53919" lon="7.14905">
        <ele>411</ele>
        <time>2018-04-11T10:27:22Z</time>
      </trkpt>
      <trkpt lat="47.53901" lon="7.14899">
        <ele>412</ele>
        <time>2018-04-11T10:27:32Z</time>
      </trkpt>
      <trkpt lat="47.5388" lon="7.14897">
        <ele>412</ele>
        <time>2018-04-11T10:27:44Z</time>
      </trkpt>
      <trkpt lat="47.53858" lon="7.14894">
        <ele>412</ele>
        <time>2018-04-11T10:27:56Z</time>
      </trkpt>
      <trkpt lat="47.53841" lon="7.14889">
        <ele>413</ele>
        <time>2018-04-11T10:28:06Z</time>
      </trkpt>
      <trkpt lat="47.53819" lon="7.14885">
        <ele>414</ele>
        <time>2018-04-11T10:28:18Z</time>
      </trkpt>
      <trkpt lat="47.53799" lon="7.1488">
        <ele>414</ele>
        <time>2018-04-11T10:28:30Z</time>
      </trkpt>
      <trkpt lat="47.53779" lon="7.14874">
        <ele>414</ele>
        <time>2018-04-11T10:28:42Z</time>
      </trkpt>
      <trkpt lat="47.53758" lon="7.14867">
        <ele>414</ele>
        <time>2018-04-11T10:28:54Z</time>
      </trkpt>
      <trkpt lat="47.53741" lon="7.14858">
        <ele>416</ele>
        <time>2018-04-11T10:29:04Z</time>
      </trkpt>
      <trkpt lat="47.53722" lon="7.14848">
        <ele>416</ele>
        <time>2018-04-11T10:29:16Z</time>
      </trkpt>
      <trkpt lat="47.537" lon="7.14838">
        <ele>417</ele>
        <time>2018-04-11T10:29:28Z</time>
      </trkpt>
      <trkpt lat="47.53682" lon="7.1483">
        <ele>420</ele>
        <time>2018-04-11T10:29:40Z</time>
      </trkpt>
      <trkpt lat="47.53663" lon="7.14819">
        <ele>423</ele>
        <time>2018-04-11T10:29:54Z</time>
      </trkpt>
      <trkpt lat="47.53648" lon="7.14804">
        <ele>424</ele>
        <time>2018-04-11T10:30:06Z</time>
      </trkpt>
      <trkpt lat="47.53628" lon="7.14791">
        <ele>425</ele>
        <time>2018-04-11T10:30:18Z</time>
      </trkpt>
      <trkpt lat="47.53611" lon="7.14784">
        <ele>425</ele>
        <time>2018-04-11T10:30:30Z</time>
      </trkpt>
      <trkpt lat="47.5359" lon="7.14778">
        <ele>426</ele>
        <time>2018-04-11T10:30:42Z</time>
      </trkpt>
      <trkpt lat="47.53572" lon="7.14777">
        <ele>427</ele>
        <time>2018-04-11T10:30:54Z</time>
      </trkpt>
      <trkpt lat="47.53553" lon="7.14782">
        <ele>427</ele>
        <time>2018-04-11T10:31:04Z</time>
      </trkpt>
      <trkpt lat="47.53532" lon="7.14788">
        <ele>426</ele>
        <time>2018-04-11T10:31:16Z</time>
      </trkpt>
      <trkpt lat="47.53514" lon="7.14794">
        <ele>427</ele>
        <time>2018-04-11T10:31:26Z</time>
      </trkpt>
      <trkpt lat="47.53494" lon="7.14802">
        <ele>427</ele>
        <time>2018-04-11T10:31:36Z</time>
      </trkpt>
      <trkpt lat="47.53474" lon="7.14808">
        <ele>427</ele>
        <time>2018-04-11T10:31:46Z</time>
      </trkpt>
      <trkpt lat="47.53454" lon="7.14812">
        <ele>427</ele>
        <time>2018-04-11T10:31:56Z</time>
      </trkpt>
      <trkpt lat="47.53435" lon="7.14815">
        <ele>427</ele>
        <time>2018-04-11T10:32:06Z</time>
      </trkpt>
      <trkpt lat="47.53414" lon="7.14815">
        <ele>427</ele>
        <time>2018-04-11T10:32:18Z</time>
      </trkpt>
      <trkpt lat="47.53396" lon="7.14809">
        <ele>428</ele>
        <time>2018-04-11T10:32:30Z</time>
      </trkpt>
      <trkpt lat="47.53378" lon="7.14802">
        <ele>428</ele>
        <time>2018-04-11T10:32:42Z</time>
      </trkpt>
      <trkpt lat="47.53359" lon="7.14792">
        <ele>428</ele>
        <time>2018-04-11T10:32:54Z</time>
      </trkpt>
      <trkpt lat="47.53339" lon="7.14782">
        <ele>428</ele>
        <time>2018-04-11T10:33:06Z</time>
      </trkpt>
      <trkpt lat="47.53319" lon="7.14772">
        <ele>431</ele>
        <time>2018-04-11T10:33:18Z</time>
      </trkpt>
      <trkpt lat="47.533" lon="7.14764">
        <ele>432</ele>
        <time>2018-04-11T10:33:30Z</time>
      </trkpt>
      <trkpt lat="47.53281" lon="7.14758">
        <ele>433</ele>
        <time>2018-04-11T10:33:42Z</time>
      </trkpt>
      <trkpt lat="47.5326" lon="7.14757">
        <ele>435</ele>
        <time>2018-04-11T10:33:54Z</time>
      </trkpt>
      <trkpt lat="47.53241" lon="7.1476">
        <ele>436</ele>
        <time>2018-04-11T10:34:06Z</time>
      </trkpt>
      <trkpt lat="47.53222" lon="7.14764">
        <ele>437</ele>
        <time>2018-04-11T10:34:18Z</time>
      </trkpt>
      <trkpt lat="47.53201" lon="7.14769">
        <ele>437</ele>
        <time>2018-04-11T10:34:28Z</time>
      </trkpt>
      <trkpt lat="47.53183" lon="7.14773">
        <ele>437</ele>
        <time>2018-04-11T10:34:37Z</time>
      </trkpt>
      <trkpt lat="47.53162" lon="7.14779">
        <ele>436</ele>
        <time>2018-04-11T10:34:47Z</time>
      </trkpt>
      <trkpt lat="47.53145" lon="7.14784">
        <ele>436</ele>
        <time>2018-04-11T10:34:57Z</time>
      </trkpt>
      <trkpt lat="47.53126" lon="7.14792">
        <ele>436</ele>
        <time>2018-04-11T10:35:07Z</time>
      </trkpt>
      <trkpt lat="47.53107" lon="7.14799">
        <ele>436</ele>
        <time>2018-04-11T10:35:17Z</time>
      </trkpt>
      <trkpt lat="47.53088" lon="7.14805">
        <ele>435</ele>
        <time>2018-04-11T10:35:29Z</time>
      </trkpt>
      <trkpt lat="47.5307" lon="7.14812">
        <ele>434</ele>
        <time>2018-04-11T10:35:39Z</time>
      </trkpt>
      <trkpt lat="47.53049" lon="7.14818">
        <ele>434</ele>
        <time>2018-04-11T10:35:49Z</time>
      </trkpt>
      <trkpt lat="47.5303" lon="7.14827">
        <ele>434</ele>
        <time>2018-04-11T10:36:01Z</time>
      </trkpt>
      <trkpt lat="47.53009" lon="7.14834">
        <ele>434</ele>
        <time>2018-04-11T10:36:14Z</time>
      </trkpt>
      <trkpt lat="47.53003" lon="7.14864">
        <ele>434</ele>
        <time>2018-04-11T10:36:25Z</time>
      </trkpt>
      <trkpt lat="47.53" lon="7.14891">
        <ele>435</ele>
        <time>2018-04-11T10:36:35Z</time>
      </trkpt>
      <trkpt lat="47.53" lon="7.14922">
        <ele>434</ele>
        <time>2018-04-11T10:36:47Z</time>
      </trkpt>
      <trkpt lat="47.53001" lon="7.14949">
        <ele>432</ele>
        <time>2018-04-11T10:36:57Z</time>
      </trkpt>
      <trkpt lat="47.53003" lon="7.14977">
        <ele>432</ele>
        <time>2018-04-11T10:37:07Z</time>
      </trkpt>
      <trkpt lat="47.53006" lon="7.15004">
        <ele>432</ele>
        <time>2018-04-11T10:37:17Z</time>
      </trkpt>
      <trkpt lat="47.53012" lon="7.15033">
        <ele>430</ele>
        <time>2018-04-11T10:37:29Z</time>
      </trkpt>
      <trkpt lat="47.53019" lon="7.15061">
        <ele>430</ele>
        <time>2018-04-11T10:37:41Z</time>
      </trkpt>
      <trkpt lat="47.53028" lon="7.15085">
        <ele>429</ele>
        <time>2018-04-11T10:37:53Z</time>
      </trkpt>
      <trkpt lat="47.53038" lon="7.15113">
        <ele>428</ele>
        <time>2018-04-11T10:38:07Z</time>
      </trkpt>
      <trkpt lat="47.5304" lon="7.15141">
        <ele>428</ele>
        <time>2018-04-11T10:38:19Z</time>
      </trkpt>
      <trkpt lat="47.53027" lon="7.1516">
        <ele>428</ele>
        <time>2018-04-11T10:38:29Z</time>
      </trkpt>
      <trkpt lat="47.53012" lon="7.15181">
        <ele>427</ele>
        <time>2018-04-11T10:38:41Z</time>
      </trkpt>
      <trkpt lat="47.52997" lon="7.152">
        <ele>427</ele>
        <time>2018-04-11T10:38:51Z</time>
      </trkpt>
      <trkpt lat="47.52983" lon="7.15217">
        <ele>426</ele>
        <time>2018-04-11T10:39:01Z</time>
      </trkpt>
      <trkpt lat="47.52968" lon="7.15235">
        <ele>426</ele>
        <time>2018-04-11T10:39:11Z</time>
      </trkpt>
      <trkpt lat="47.52953" lon="7.15253">
        <ele>425</ele>
        <time>2018-04-11T10:39:21Z</time>
      </trkpt>
      <trkpt lat="47.52938" lon="7.15269">
        <ele>425</ele>
        <time>2018-04-11T10:39:31Z</time>
      </trkpt>
      <trkpt lat="47.52927" lon="7.15291">
        <ele>425</ele>
        <time>2018-04-11T10:39:41Z</time>
      </trkpt>
      <trkpt lat="47.5292" lon="7.1532">
        <ele>425</ele>
        <time>2018-04-11T10:39:53Z</time>
      </trkpt>
      <trkpt lat="47.52912" lon="7.15348">
        <ele>426</ele>
        <time>2018-04-11T10:40:05Z</time>
      </trkpt>
      <trkpt lat="47.52905" lon="7.15376">
        <ele>426</ele>
        <time>2018-04-11T10:40:17Z</time>
      </trkpt>
      <trkpt lat="47.529" lon="7.15403">
        <ele>426</ele>
        <time>2018-04-11T10:40:29Z</time>
      </trkpt>
      <trkpt lat="47.52893" lon="7.15433">
        <ele>427</ele>
        <time>2018-04-11T10:40:41Z</time>
      </trkpt>
      <trkpt lat="47.52884" lon="7.1546">
        <ele>427</ele>
        <time>2018-04-11T10:40:53Z</time>
      </trkpt>
      <trkpt lat="47.52878" lon="7.15487">
        <ele>427</ele>
        <time>2018-04-11T10:41:05Z</time>
      </trkpt>
      <trkpt lat="47.52869" lon="7.15516">
        <ele>428</ele>
        <time>2018-04-11T10:41:17Z</time>
      </trkpt>
      <trkpt lat="47.5286" lon="7.1554">
        <ele>428</ele>
        <time>2018-04-11T10:41:27Z</time>
      </trkpt>
      <trkpt lat="47.5285" lon="7.15568">
        <ele>428</ele>
        <time>2018-04-11T10:41:39Z</time>
      </trkpt>
      <trkpt lat="47.52837" lon="7.15592">
        <ele>429</ele>
        <time>2018-04-11T10:41:51Z</time>
      </trkpt>
      <trkpt lat="47.52822" lon="7.15613">
        <ele>430</ele>
        <time>2018-04-11T10:42:03Z</time>
      </trkpt>
      <trkpt lat="47.52809" lon="7.15637">
        <ele>431</ele>
        <time>2018-04-11T10:42:15Z</time>
      </trkpt>
      <trkpt lat="47.52798" lon="7.15664">
        <ele>431</ele>
        <time>2018-04-11T10:42:27Z</time>
      </trkpt>
      <trkpt lat="47.52787" lon="7.15687">
        <ele>433</ele>
        <time>2018-04-11T10:42:37Z</time>
      </trkpt>
      <trkpt lat="47.52777" lon="7.15711">
        <ele>434</ele>
        <time>2018-04-11T10:42:49Z</time>
      </trkpt>
      <trkpt lat="47.52765" lon="7.15736">
        <ele>436</ele>
        <time>2018-04-11T10:43:03Z</time>
      </trkpt>
      <trkpt lat="47.52753" lon="7.15757">
        <ele>438</ele>
        <time>2018-04-11T10:43:13Z</time>
      </trkpt>
      <trkpt lat="47.5274" lon="7.15777">
        <ele>441</ele>
        <time>2018-04-11T10:43:25Z</time>
      </trkpt>
      <trkpt lat="47.52725" lon="7.15792">
        <ele>442</ele>
        <time>2018-04-11T10:43:35Z</time>
      </trkpt>
      <trkpt lat="47.52711" lon="7.15814">
        <ele>443</ele>
        <time>2018-04-11T10:43:47Z</time>
      </trkpt>
      <trkpt lat="47.52723" lon="7.15838">
        <ele>445</ele>
        <time>2018-04-11T10:44:03Z</time>
      </trkpt>
      <trkpt lat="47.52739" lon="7.15859">
        <ele>445</ele>
        <time>2018-04-11T10:44:15Z</time>
      </trkpt>
      <trkpt lat="47.52752" lon="7.15877">
        <ele>441</ele>
        <time>2018-04-11T10:44:25Z</time>
      </trkpt>
      <trkpt lat="47.52767" lon="7.15899">
        <ele>442</ele>
        <time>2018-04-11T10:44:37Z</time>
      </trkpt>
      <trkpt lat="47.52782" lon="7.15914">
        <ele>441</ele>
        <time>2018-04-11T10:44:47Z</time>
      </trkpt>
      <trkpt lat="47.52795" lon="7.15935">
        <ele>442</ele>
        <time>2018-04-11T10:44:57Z</time>
      </trkpt>
      <trkpt lat="47.52809" lon="7.15954">
        <ele>442</ele>
        <time>2018-04-11T10:45:07Z</time>
      </trkpt>
      <trkpt lat="47.52821" lon="7.15973">
        <ele>443</ele>
        <time>2018-04-11T10:45:19Z</time>
      </trkpt>
      <trkpt lat="47.52837" lon="7.15996">
        <ele>443</ele>
        <time>2018-04-11T10:45:29Z</time>
      </trkpt>
      <trkpt lat="47.52852" lon="7.16014">
        <ele>444</ele>
        <time>2018-04-11T10:45:43Z</time>
      </trkpt>
      <trkpt lat="47.52869" lon="7.16032">
        <ele>444</ele>
        <time>2018-04-11T10:45:53Z</time>
      </trkpt>
      <trkpt lat="47.52887" lon="7.1605">
        <ele>444</ele>
        <time>2018-04-11T10:46:05Z</time>
      </trkpt>
      <trkpt lat="47.52902" lon="7.16068">
        <ele>443</ele>
        <time>2018-04-11T10:46:17Z</time>
      </trkpt>
      <trkpt lat="47.52917" lon="7.16084">
        <ele>442</ele>
        <time>2018-04-11T10:46:27Z</time>
      </trkpt>
      <trkpt lat="47.52934" lon="7.161">
        <ele>442</ele>
        <time>2018-04-11T10:46:41Z</time>
      </trkpt>
      <trkpt lat="47.5295" lon="7.16115">
        <ele>442</ele>
        <time>2018-04-11T10:46:53Z</time>
      </trkpt>
      <trkpt lat="47.52969" lon="7.1613">
        <ele>443</ele>
        <time>2018-04-11T10:47:05Z</time>
      </trkpt>
      <trkpt lat="47.52986" lon="7.16147">
        <ele>443</ele>
        <time>2018-04-11T10:47:15Z</time>
      </trkpt>
      <trkpt lat="47.53001" lon="7.16164">
        <ele>443</ele>
        <time>2018-04-11T10:47:25Z</time>
      </trkpt>
      <trkpt lat="47.53016" lon="7.16182">
        <ele>441</ele>
        <time>2018-04-11T10:47:37Z</time>
      </trkpt>
      <trkpt lat="47.5303" lon="7.16201">
        <ele>440</ele>
        <time>2018-04-11T10:47:47Z</time>
      </trkpt>
      <trkpt lat="47.53045" lon="7.16219">
        <ele>440</ele>
        <time>2018-04-11T10:47:57Z</time>
      </trkpt>
      <trkpt lat="47.53058" lon="7.16237">
        <ele>439</ele>
        <time>2018-04-11T10:48:07Z</time>
      </trkpt>
      <trkpt lat="47.53072" lon="7.1626">
        <ele>436</ele>
        <time>2018-04-11T10:48:17Z</time>
      </trkpt>
      <trkpt lat="47.53087" lon="7.1628">
        <ele>435</ele>
        <time>2018-04-11T10:48:27Z</time>
      </trkpt>
      <trkpt lat="47.531" lon="7.16301">
        <ele>434</ele>
        <time>2018-04-11T10:48:39Z</time>
      </trkpt>
      <trkpt lat="47.53113" lon="7.16324">
        <ele>433</ele>
        <time>2018-04-11T10:48:49Z</time>
      </trkpt>
      <trkpt lat="47.53127" lon="7.16345">
        <ele>431</ele>
        <time>2018-04-11T10:49:01Z</time>
      </trkpt>
      <trkpt lat="47.53141" lon="7.16362">
        <ele>431</ele>
        <time>2018-04-11T10:49:13Z</time>
      </trkpt>
      <trkpt lat="47.53157" lon="7.16378">
        <ele>431</ele>
        <time>2018-04-11T10:49:23Z</time>
      </trkpt>
      <trkpt lat="47.53171" lon="7.16399">
        <ele>430</ele>
        <time>2018-04-11T10:49:35Z</time>
      </trkpt>
      <trkpt lat="47.53186" lon="7.1642">
        <ele>429</ele>
        <time>2018-04-11T10:49:47Z</time>
      </trkpt>
      <trkpt lat="47.53201" lon="7.16443">
        <ele>428</ele>
        <time>2018-04-11T10:49:59Z</time>
      </trkpt>
      <trkpt lat="47.53215" lon="7.16466">
        <ele>428</ele>
        <time>2018-04-11T10:50:13Z</time>
      </trkpt>
      <trkpt lat="47.53229" lon="7.16487">
        <ele>429</ele>
        <time>2018-04-11T10:50:25Z</time>
      </trkpt>
      <trkpt lat="47.53244" lon="7.16506">
        <ele>429</ele>
        <time>2018-04-11T10:50:37Z</time>
      </trkpt>
      <trkpt lat="47.53258" lon="7.16524">
        <ele>428</ele>
        <time>2018-04-11T10:50:47Z</time>
      </trkpt>
      <trkpt lat="47.53272" lon="7.16544">
        <ele>428</ele>
        <time>2018-04-11T10:50:57Z</time>
      </trkpt>
      <trkpt lat="47.53288" lon="7.16563">
        <ele>427</ele>
        <time>2018-04-11T10:51:07Z</time>
      </trkpt>
      <trkpt lat="47.53302" lon="7.16582">
        <ele>427</ele>
        <time>2018-04-11T10:51:17Z</time>
      </trkpt>
      <trkpt lat="47.53318" lon="7.16603">
        <ele>426</ele>
        <time>2018-04-11T10:51:28Z</time>
      </trkpt>
      <trkpt lat="47.53333" lon="7.1662">
        <ele>426</ele>
        <time>2018-04-11T10:51:38Z</time>
      </trkpt>
      <trkpt lat="47.53348" lon="7.16644">
        <ele>423</ele>
        <time>2018-04-11T10:51:48Z</time>
      </trkpt>
      <trkpt lat="47.53362" lon="7.16664">
        <ele>423</ele>
        <time>2018-04-11T10:51:56Z</time>
      </trkpt>
      <trkpt lat="47.53376" lon="7.16684">
        <ele>422</ele>
        <time>2018-04-11T10:52:06Z</time>
      </trkpt>
      <trkpt lat="47.53389" lon="7.16704">
        <ele>421</ele>
        <time>2018-04-11T10:52:16Z</time>
      </trkpt>
      <trkpt lat="47.53403" lon="7.16724">
        <ele>421</ele>
        <time>2018-04-11T10:52:26Z</time>
      </trkpt>
      <trkpt lat="47.53416" lon="7.16742">
        <ele>420</ele>
        <time>2018-04-11T10:52:36Z</time>
      </trkpt>
      <trkpt lat="47.53432" lon="7.16764">
        <ele>418</ele>
        <time>2018-04-11T10:52:48Z</time>
      </trkpt>
      <trkpt lat="47.53449" lon="7.16785">
        <ele>418</ele>
        <time>2018-04-11T10:53:00Z</time>
      </trkpt>
      <trkpt lat="47.53458" lon="7.1681">
        <ele>417</ele>
        <time>2018-04-11T10:53:10Z</time>
      </trkpt>
      <trkpt lat="47.53465" lon="7.1684">
        <ele>416</ele>
        <time>2018-04-11T10:53:22Z</time>
      </trkpt>
      <trkpt lat="47.5347" lon="7.16869">
        <ele>416</ele>
        <time>2018-04-11T10:53:34Z</time>
      </trkpt>
      <trkpt lat="47.53475" lon="7.16897">
        <ele>415</ele>
        <time>2018-04-11T10:53:44Z</time>
      </trkpt>
      <trkpt lat="47.53481" lon="7.16923">
        <ele>414</ele>
        <time>2018-04-11T10:53:54Z</time>
      </trkpt>
      <trkpt lat="47.53488" lon="7.1695">
        <ele>413</ele>
        <time>2018-04-11T10:54:04Z</time>
      </trkpt>
      <trkpt lat="47.53498" lon="7.16975">
        <ele>413</ele>
        <time>2018-04-11T10:54:16Z</time>
      </trkpt>
      <trkpt lat="47.53506" lon="7.17">
        <ele>413</ele>
        <time>2018-04-11T10:54:26Z</time>
      </trkpt>
      <trkpt lat="47.5351" lon="7.17027">
        <ele>412</ele>
        <time>2018-04-11T10:54:36Z</time>
      </trkpt>
      <trkpt lat="47.53517" lon="7.17053">
        <ele>411</ele>
        <time>2018-04-11T10:54:46Z</time>
      </trkpt>
      <trkpt lat="47.53523" lon="7.17082">
        <ele>411</ele>
        <time>2018-04-11T10:54:58Z</time>
      </trkpt>
      <trkpt lat="47.53527" lon="7.1711">
        <ele>409</ele>
        <time>2018-04-11T10:55:08Z</time>
      </trkpt>
      <trkpt lat="47.5353" lon="7.1714">
        <ele>408</ele>
        <time>2018-04-11T10:55:20Z</time>
      </trkpt>
      <trkpt lat="47.53534" lon="7.17169">
        <ele>406</ele>
        <time>2018-04-11T10:55:30Z</time>
      </trkpt>
      <trkpt lat="47.53536" lon="7.17196">
        <ele>406</ele>
        <time>2018-04-11T10:55:40Z</time>
      </trkpt>
      <trkpt lat="47.5354" lon="7.17228">
        <ele>405</ele>
        <time>2018-04-11T10:55:52Z</time>
      </trkpt>
      <trkpt lat="47.53543" lon="7.17254">
        <ele>403</ele>
        <time>2018-04-11T10:56:02Z</time>
      </trkpt>
      <trkpt lat="47.53548" lon="7.17285">
        <ele>403</ele>
        <time>2018-04-11T10:56:14Z</time>
      </trkpt>
      <trkpt lat="47.53566" lon="7.17293">
        <ele>402</ele>
        <time>2018-04-11T10:56:24Z</time>
      </trkpt>
      <trkpt lat="47.53585" lon="7.17296">
        <ele>400</ele>
        <time>2018-04-11T10:56:36Z</time>
      </trkpt>
      <trkpt lat="47.53605" lon="7.17301">
        <ele>400</ele>
        <time>2018-04-11T10:56:48Z</time>
      </trkpt>
      <trkpt lat="47.53624" lon="7.17293">
        <ele>399</ele>
        <time>2018-04-11T10:57:00Z</time>
      </trkpt>
      <trkpt lat="47.53642" lon="7.17277">
        <ele>399</ele>
        <time>2018-04-11T10:57:12Z</time>
      </trkpt>
      <trkpt lat="47.5366" lon="7.17267">
        <ele>399</ele>
        <time>2018-04-11T10:57:22Z</time>
      </trkpt>
      <trkpt lat="47.53674" lon="7.1725">
        <ele>396</ele>
        <time>2018-04-11T10:57:32Z</time>
      </trkpt>
      <trkpt lat="47.53693" lon="7.17261">
        <ele>393</ele>
        <time>2018-04-11T10:57:44Z</time>
      </trkpt>
      <trkpt lat="47.5371" lon="7.17278">
        <ele>391</ele>
        <time>2018-04-11T10:57:56Z</time>
      </trkpt>
      <trkpt lat="47.53723" lon="7.17295">
        <ele>389</ele>
        <time>2018-04-11T10:58:06Z</time>
      </trkpt>
      <trkpt lat="47.5374" lon="7.1731">
        <ele>387</ele>
        <time>2018-04-11T10:58:16Z</time>
      </trkpt>
      <trkpt lat="47.53757" lon="7.17324">
        <ele>382</ele>
        <time>2018-04-11T10:58:28Z</time>
      </trkpt>
      <trkpt lat="47.53773" lon="7.17338">
        <ele>380</ele>
        <time>2018-04-11T10:58:38Z</time>
      </trkpt>
      <trkpt lat="47.53789" lon="7.17352">
        <ele>379</ele>
        <time>2018-04-11T10:58:48Z</time>
      </trkpt>
      <trkpt lat="47.53806" lon="7.17361">
        <ele>378</ele>
        <time>2018-04-11T10:58:58Z</time>
      </trkpt>
      <trkpt lat="47.53824" lon="7.17368">
        <ele>378</ele>
        <time>2018-04-11T10:59:08Z</time>
      </trkpt>
      <trkpt lat="47.53841" lon="7.1738">
        <ele>375</ele>
        <time>2018-04-11T10:59:20Z</time>
      </trkpt>
      <trkpt lat="47.53861" lon="7.17374">
        <ele>374</ele>
        <time>2018-04-11T10:59:32Z</time>
      </trkpt>
      <trkpt lat="47.53875" lon="7.17355">
        <ele>374</ele>
        <time>2018-04-11T10:59:42Z</time>
      </trkpt>
      <trkpt lat="47.53886" lon="7.17328">
        <ele>374</ele>
        <time>2018-04-11T10:59:54Z</time>
      </trkpt>
      <trkpt lat="47.53898" lon="7.17307">
        <ele>374</ele>
        <time>2018-04-11T11:00:04Z</time>
      </trkpt>
      <trkpt lat="47.53912" lon="7.17285">
        <ele>374</ele>
        <time>2018-04-11T11:00:16Z</time>
      </trkpt>
      <trkpt lat="47.53924" lon="7.17261">
        <ele>372</ele>
        <time>2018-04-11T11:00:28Z</time>
      </trkpt>
      <trkpt lat="47.53935" lon="7.17239">
        <ele>373</ele>
        <time>2018-04-11T11:00:38Z</time>
      </trkpt>
      <trkpt lat="47.53955" lon="7.17229">
        <ele>373</ele>
        <time>2018-04-11T11:00:52Z</time>
      </trkpt>
      <trkpt lat="47.53974" lon="7.17238">
        <ele>372</ele>
        <time>2018-04-11T11:01:04Z</time>
      </trkpt>
      <trkpt lat="47.53991" lon="7.17252">
        <ele>370</ele>
        <time>2018-04-11T11:01:16Z</time>
      </trkpt>
      <trkpt lat="47.54008" lon="7.17246">
        <ele>370</ele>
        <time>2018-04-11T11:01:26Z</time>
      </trkpt>
      <trkpt lat="47.54023" lon="7.17229">
        <ele>370</ele>
        <time>2018-04-11T11:01:36Z</time>
      </trkpt>
      <trkpt lat="47.54036" lon="7.17204">
        <ele>370</ele>
        <time>2018-04-11T11:01:48Z</time>
      </trkpt>
      <trkpt lat="47.54049" lon="7.17181">
        <ele>370</ele>
        <time>2018-04-11T11:02:00Z</time>
      </trkpt>
      <trkpt lat="47.54057" lon="7.17158">
        <ele>370</ele>
        <time>2018-04-11T11:02:10Z</time>
      </trkpt>
      <trkpt lat="47.54068" lon="7.1713">
        <ele>369</ele>
        <time>2018-04-11T11:02:22Z</time>
      </trkpt>
      <trkpt lat="47.54078" lon="7.17106">
        <ele>369</ele>
        <time>2018-04-11T11:02:32Z</time>
      </trkpt>
      <trkpt lat="47.54098" lon="7.17108">
        <ele>367</ele>
        <time>2018-04-11T11:02:46Z</time>
      </trkpt>
      <trkpt lat="47.54112" lon="7.17089">
        <ele>367</ele>
        <time>2018-04-11T11:02:56Z</time>
      </trkpt>
      <trkpt lat="47.54129" lon="7.17076">
        <ele>367</ele>
        <time>2018-04-11T11:03:08Z</time>
      </trkpt>
      <trkpt lat="47.54148" lon="7.17068">
        <ele>367</ele>
        <time>2018-04-11T11:03:24Z</time>
      </trkpt>
      <trkpt lat="47.54122" lon="7.17089">
        <ele>367</ele>
        <time>2018-04-11T11:04:19Z</time>
      </trkpt>
      <trkpt lat="47.54165" lon="7.17088">
        <ele>367</ele>
        <time>2018-04-11T11:04:25Z</time>
      </trkpt>
    </trkseg>
  </trk>
</gpx>